Time;durP1;ratioP1;P1;durP2;ratioP2;P2;SDS_P1;SDS_P2;PMS_P1;PMS_P2;Temp;Humidity;BMP_temperature;BMP_pressure;BME280_temperature;BME280_humidity;BME280_pressure;Samples;Min_cycle;Max_cycle;Signal;HPM_P1;HPM_P2
2022/02/17 00:00:13;;;;;;;1.75;0.75;;;;;;;;;;5070815;28;20119;-46
2022/02/17 00:02:40;;;;;;;1.30;0.82;;;;;;;;;;5071398;28;20027;-45
2022/02/17 00:05:06;;;;;;;1.40;0.65;;;;;;;;;;5070722;28;20382;-50
2022/02/17 00:07:32;;;;;;;0.50;0.50;;;;;;;;;;5052870;28;20469;-45
2022/02/17 00:09:58;;;;;;;0.75;0.40;;;;;;;;;;5071323;28;20021;-45
2022/02/17 00:12:24;;;;;;;1.00;0.55;;;;;;;;;;5070402;28;20085;-45
2022/02/17 00:14:51;;;;;;;1.30;0.70;;;;;;;;;;5071759;28;20029;-45
2022/02/17 00:17:17;;;;;;;1.48;0.50;;;;;;;;;;5073152;28;20040;-46
2022/02/17 00:19:43;;;;;;;2.40;0.60;;;;;;;;;;5075016;28;20024;-45
2022/02/17 00:22:09;;;;;;;1.55;0.52;;;;;;;;;;5073433;28;20381;-51
2022/02/17 00:24:35;;;;;;;1.15;0.40;;;;;;;;;;5074942;28;20024;-45
2022/02/17 00:27:02;;;;;;;0.90;0.40;;;;;;;;;;5074340;28;20100;-45
2022/02/17 00:29:28;;;;;;;0.80;0.40;;;;;;;;;;5073841;28;20095;-46
2022/02/17 00:31:54;;;;;;;0.77;0.40;;;;;;;;;;5074249;28;20388;-47
2022/02/17 00:34:20;;;;;;;1.65;0.52;;;;;;;;;;5074196;28;20016;-45
2022/02/17 00:36:46;;;;;;;1.63;0.68;;;;;;;;;;5073715;28;20033;-45
2022/02/17 00:39:12;;;;;;;2.50;0.70;;;;;;;;;;5073332;28;20025;-45
2022/02/17 00:41:38;;;;;;;0.63;0.50;;;;;;;;;;5074514;28;20025;-46
2022/02/17 00:44:04;;;;;;;1.13;0.40;;;;;;;;;;5074195;28;20074;-46
2022/02/17 00:46:30;;;;;;;1.98;0.65;;;;;;;;;;5073569;28;20158;-45
2022/02/17 00:48:56;;;;;;;1.58;0.60;;;;;;;;;;5074446;28;20028;-45
2022/02/17 00:51:22;;;;;;;1.13;0.50;;;;;;;;;;5074009;28;20025;-46
2022/02/17 00:53:48;;;;;;;0.73;0.30;;;;;;;;;;5073939;28;20476;-45
2022/02/17 00:56:14;;;;;;;0.50;0.40;;;;;;;;;;5072990;28;20028;-45
2022/02/17 00:58:40;;;;;;;1.65;0.50;;;;;;;;;;5074700;28;20025;-45
2022/02/17 01:01:07;;;;;;;0.85;0.70;;;;;;;;;;5074149;28;20025;-53
2022/02/17 01:03:33;;;;;;;1.40;1.02;;;;;;;;;;5073509;28;20048;-45
2022/02/17 01:06:00;;;;;;;1.50;0.40;;;;;;;;;;5073614;28;20063;-46
2022/02/17 01:08:26;;;;;;;0.40;0.40;;;;;;;;;;5072966;28;20025;-46
2022/02/17 01:10:52;;;;;;;1.20;0.65;;;;;;;;;;5074058;28;20025;-47
2022/02/17 01:13:18;;;;;;;0.70;0.43;;;;;;;;;;5073130;28;20484;-46
2022/02/17 01:15:44;;;;;;;1.27;0.70;;;;;;;;;;5073509;28;20040;-46
2022/02/17 01:18:11;;;;;;;0.63;0.43;;;;;;;;;;5072779;28;20107;-47
2022/02/17 01:20:37;;;;;;;1.02;0.50;;;;;;;;;;5073864;28;20377;-46
2022/02/17 01:23:03;;;;;;;3.00;0.98;;;;;;;;;;5073762;28;20115;-46
2022/02/17 01:25:29;;;;;;;1.17;0.50;;;;;;;;;;5072964;28;20046;-45
2022/02/17 01:27:57;;;;;;;1.40;0.35;;;;;;;;;;5070344;28;20024;-45
2022/02/17 01:30:23;;;;;;;1.40;0.52;;;;;;;;;;5072850;28;20029;-45
2022/02/17 01:32:49;;;;;;;0.30;0.30;;;;;;;;;;5073239;28;20021;-46
2022/02/17 01:35:15;;;;;;;0.43;0.30;;;;;;;;;;5072544;28;20493;-45
2022/02/17 01:37:42;;;;;;;0.30;0.30;;;;;;;;;;5073139;28;20048;-46
2022/02/17 01:40:09;;;;;;;0.90;0.40;;;;;;;;;;5072555;28;20036;-50
2022/02/17 01:42:35;;;;;;;0.93;0.50;;;;;;;;;;5072994;28;20055;-49
2022/02/17 01:45:05;;;;;;;0.57;0.30;;;;;;;;;;5073379;28;20052;-46
2022/02/17 01:47:31;;;;;;;0.43;0.20;;;;;;;;;;5072425;28;20046;-47
2022/02/17 01:49:57;;;;;;;0.38;0.20;;;;;;;;;;5072938;28;20547;-46
2022/02/17 01:52:23;;;;;;;0.30;0.30;;;;;;;;;;5072311;28;20024;-46
2022/02/17 01:54:49;;;;;;;1.77;0.38;;;;;;;;;;5072497;28;20021;-45
2022/02/17 01:57:16;;;;;;;0.20;0.20;;;;;;;;;;5071662;28;20111;-45
2022/02/17 01:59:47;;;;;;;1.08;0.40;;;;;;;;;;5072626;28;20052;-45
2022/02/17 02:02:14;;;;;;;0.60;0.30;;;;;;;;;;5055751;28;20025;-45
2022/02/17 02:04:40;;;;;;;0.30;0.20;;;;;;;;;;5072987;28;20027;-45
2022/02/17 02:07:06;;;;;;;0.40;0.30;;;;;;;;;;5072387;28;20033;-46
2022/02/17 02:09:33;;;;;;;0.88;0.30;;;;;;;;;;5071952;28;20020;-46
2022/02/17 02:11:59;;;;;;;0.30;0.20;;;;;;;;;;5072745;28;20099;-47
2022/02/17 02:14:25;;;;;;;1.38;0.30;;;;;;;;;;5071893;28;20391;-45
2022/02/17 02:16:52;;;;;;;1.55;0.40;;;;;;;;;;5072083;28;20149;-45
2022/02/17 02:19:19;;;;;;;2.20;0.45;;;;;;;;;;5071593;28;20508;-45
2022/02/17 02:21:45;;;;;;;1.63;0.50;;;;;;;;;;5072697;28;20020;-46
2022/02/17 02:24:11;;;;;;;0.35;0.30;;;;;;;;;;5071834;28;20020;-53
2022/02/17 02:26:37;;;;;;;0.35;0.25;;;;;;;;;;5071864;28;20044;-46
2022/02/17 02:29:03;;;;;;;1.08;0.30;;;;;;;;;;5072776;28;20036;-45
2022/02/17 02:31:29;;;;;;;0.40;0.30;;;;;;;;;;5071397;28;20024;-46
2022/02/17 02:33:56;;;;;;;0.57;0.35;;;;;;;;;;5072272;28;20028;-46
2022/02/17 02:36:22;;;;;;;0.38;0.30;;;;;;;;;;5070939;28;20063;-47
2022/02/17 02:38:48;;;;;;;1.00;0.38;;;;;;;;;;5072333;28;20052;-46
2022/02/17 02:41:14;;;;;;;0.30;0.30;;;;;;;;;;5071415;28;20094;-46
2022/02/17 02:43:40;;;;;;;0.52;0.30;;;;;;;;;;5072130;28;20103;-46
2022/02/17 02:46:07;;;;;;;1.00;0.30;;;;;;;;;;5072334;28;20028;-45
2022/02/17 02:48:33;;;;;;;1.00;0.47;;;;;;;;;;5072001;28;20060;-46
2022/02/17 02:50:59;;;;;;;0.38;0.20;;;;;;;;;;5072308;28;20048;-46
2022/02/17 02:53:25;;;;;;;0.28;0.28;;;;;;;;;;5053316;28;20029;-46
2022/02/17 02:55:51;;;;;;;0.40;0.38;;;;;;;;;;5071268;28;20090;-45
2022/02/17 02:58:18;;;;;;;0.10;0.10;;;;;;;;;;5071067;28;20428;-45
2022/02/17 03:00:44;;;;;;;0.15;0.15;;;;;;;;;;5071779;28;20531;-46
2022/02/17 03:03:11;;;;;;;0.20;0.20;;;;;;;;;;5071822;28;20036;-51
2022/02/17 03:05:37;;;;;;;0.30;0.20;;;;;;;;;;5070952;28;20024;-46
2022/02/17 03:08:03;;;;;;;0.30;0.20;;;;;;;;;;5072098;28;20354;-46
2022/02/17 03:10:32;;;;;;;0.30;0.20;;;;;;;;;;5071116;28;20991;-46
2022/02/17 03:12:59;;;;;;;2.15;0.52;;;;;;;;;;5071919;28;20059;-46
2022/02/17 03:15:26;;;;;;;0.35;0.35;;;;;;;;;;5070590;28;20024;-46
2022/02/17 03:17:52;;;;;;;0.50;0.20;;;;;;;;;;5071586;28;20033;-45
2022/02/17 03:20:19;;;;;;;0.40;0.40;;;;;;;;;;5071055;28;20025;-46
2022/02/17 03:22:45;;;;;;;0.30;0.20;;;;;;;;;;5071477;28;20036;-46
2022/02/17 03:25:12;;;;;;;0.47;0.30;;;;;;;;;;5071468;28;20012;-52
2022/02/17 03:27:38;;;;;;;0.88;0.30;;;;;;;;;;5071471;28;20019;-46
2022/02/17 03:30:05;;;;;;;0.20;0.20;;;;;;;;;;5072272;28;20029;-47
2022/02/17 03:32:31;;;;;;;0.20;0.20;;;;;;;;;;5071308;28;20031;-46
2022/02/17 03:34:57;;;;;;;0.50;0.15;;;;;;;;;;5071836;28;20029;-46
2022/02/17 03:37:23;;;;;;;0.43;0.10;;;;;;;;;;5070546;28;20385;-45
2022/02/17 03:39:49;;;;;;;0.20;0.20;;;;;;;;;;5072331;28;20104;-46
2022/02/17 03:42:15;;;;;;;0.80;0.30;;;;;;;;;;5071296;28;20081;-45
2022/02/17 03:44:41;;;;;;;0.35;0.35;;;;;;;;;;5071708;28;20467;-45
2022/02/17 03:47:07;;;;;;;0.20;0.20;;;;;;;;;;5071974;28;20067;-45
2022/02/17 03:49:33;;;;;;;0.63;0.20;;;;;;;;;;5071762;28;20442;-45
2022/02/17 03:51:59;;;;;;;0.43;0.30;;;;;;;;;;5074856;28;20025;-46
2022/02/17 03:54:25;;;;;;;0.52;0.20;;;;;;;;;;5074935;28;20020;-45
2022/02/17 03:56:51;;;;;;;0.10;0.10;;;;;;;;;;5075294;28;20089;-45
2022/02/17 03:59:17;;;;;;;0.17;0.10;;;;;;;;;;5074873;28;20024;-47
2022/02/17 04:01:43;;;;;;;0.47;0.38;;;;;;;;;;5075616;28;20382;-46
2022/02/17 04:04:11;;;;;;;0.22;0.20;;;;;;;;;;5074636;28;20016;-45
2022/02/17 04:06:38;;;;;;;0.10;0.10;;;;;;;;;;5075326;28;20035;-47
2022/02/17 04:09:05;;;;;;;0.17;0.10;;;;;;;;;;5075608;28;20032;-46
2022/02/17 04:11:31;;;;;;;0.17;0.10;;;;;;;;;;5074974;28;20078;-46
2022/02/17 04:13:57;;;;;;;0.52;0.28;;;;;;;;;;5075099;28;20052;-46
2022/02/17 04:16:23;;;;;;;0.20;0.20;;;;;;;;;;5074666;28;22402;-45
2022/02/17 04:18:49;;;;;;;0.10;0.10;;;;;;;;;;5075357;28;20060;-46
2022/02/17 04:21:17;;;;;;;1.00;0.50;;;;;;;;;;5074635;28;20086;-47
2022/02/17 04:23:46;;;;;;;0.22;0.20;;;;;;;;;;5075112;28;20035;-46
2022/02/17 04:26:13;;;;;;;0.20;0.13;;;;;;;;;;5074485;28;20020;-52
2022/02/17 04:28:40;;;;;;;0.43;0.10;;;;;;;;;;5075167;28;20082;-46
2022/02/17 04:31:06;;;;;;;0.10;0.10;;;;;;;;;;5075336;28;20033;-45
2022/02/17 04:33:35;;;;;;;1.45;0.20;;;;;;;;;;5074132;28;20732;-46
2022/02/17 04:36:01;;;;;;;0.28;0.17;;;;;;;;;;5074864;28;20430;-45
2022/02/17 04:38:28;;;;;;;0.10;0.10;;;;;;;;;;5074511;28;20106;-45
2022/02/17 04:43:39;;;;;;;0.20;0.20;;;;;;;;;;5074260;28;20404;-45
2022/02/17 04:46:05;;;;;;;0.10;0.10;;;;;;;;;;5074996;28;20027;-46
2022/02/17 04:48:32;;;;;;;0.28;0.20;;;;;;;;;;5073997;28;20043;-45
2022/02/17 04:50:57;;;;;;;0.10;0.10;;;;;;;;;;5074888;28;20052;-46
2022/02/17 04:53:24;;;;;;;1.00;0.20;;;;;;;;;;5073411;28;20056;-46
2022/02/17 04:55:50;;;;;;;0.20;0.10;;;;;;;;;;5074450;28;20035;-46
2022/02/17 04:58:16;;;;;;;0.20;0.20;;;;;;;;;;5074018;28;20103;-48
2022/02/17 05:00:44;;;;;;;0.20;0.20;;;;;;;;;;5074505;28;20032;-46
2022/02/17 05:03:11;;;;;;;0.10;0.10;;;;;;;;;;5073666;28;20024;-46
2022/02/17 05:05:37;;;;;;;0.20;0.20;;;;;;;;;;5074082;28;20031;-45
2022/02/17 05:08:03;;;;;;;0.10;0.10;;;;;;;;;;5068080;28;20028;-46
2022/02/17 05:10:29;;;;;;;0.57;0.40;;;;;;;;;;5061923;28;20040;-45
2022/02/17 05:12:55;;;;;;;0.28;0.28;;;;;;;;;;5065180;28;20036;-47
2022/02/17 05:15:21;;;;;;;0.22;0.13;;;;;;;;;;5062310;28;20040;-46
2022/02/17 05:17:47;;;;;;;0.73;0.30;;;;;;;;;;5064590;28;20032;-46
2022/02/17 05:20:15;;;;;;;1.10;0.10;;;;;;;;;;5066350;28;20032;-50
2022/02/17 05:22:41;;;;;;;0.82;0.20;;;;;;;;;;5062812;28;20055;-46
2022/02/17 05:25:09;;;;;;;0.10;0.10;;;;;;;;;;5064702;28;20028;-48
2022/02/17 05:27:35;;;;;;;0.15;0.15;;;;;;;;;;5063780;28;20081;-48
2022/02/17 05:30:01;;;;;;;0.22;0.15;;;;;;;;;;5066961;28;20029;-47
2022/02/17 05:32:27;;;;;;;0.30;0.17;;;;;;;;;;5062066;28;20083;-47
2022/02/17 05:34:53;;;;;;;1.02;0.10;;;;;;;;;;5061676;28;20351;-46
2022/02/17 05:37:19;;;;;;;0.43;0.20;;;;;;;;;;5062036;28;20055;-46
2022/02/17 05:39:45;;;;;;;1.20;0.47;;;;;;;;;;5064154;28;20056;-46
2022/02/17 05:42:11;;;;;;;0.20;0.20;;;;;;;;;;5061803;28;20029;-46
2022/02/17 05:44:37;;;;;;;0.22;0.20;;;;;;;;;;5065403;28;20052;-49
2022/02/17 05:47:03;;;;;;;0.25;0.20;;;;;;;;;;5061878;28;20029;-49
2022/02/17 05:49:29;;;;;;;0.50;0.20;;;;;;;;;;5062765;28;20052;-49
2022/02/17 05:51:55;;;;;;;0.40;0.22;;;;;;;;;;5063401;28;20048;-47
2022/02/17 05:54:21;;;;;;;0.40;0.22;;;;;;;;;;5069006;28;20024;-52
2022/02/17 05:56:47;;;;;;;0.47;0.20;;;;;;;;;;5063893;28;20068;-48
2022/02/17 05:59:13;;;;;;;1.40;0.52;;;;;;;;;;5065896;28;20049;-48
2022/02/17 06:01:39;;;;;;;2.60;0.38;;;;;;;;;;5062059;28;20450;-50
2022/02/17 06:04:05;;;;;;;0.20;0.20;;;;;;;;;;5065325;28;20035;-50
2022/02/17 06:06:36;;;;;;;0.20;0.17;;;;;;;;;;5063150;28;20020;-47
2022/02/17 06:09:02;;;;;;;1.13;0.50;;;;;;;;;;5065690;28;20043;-47
2022/02/17 06:11:28;;;;;;;1.13;0.20;;;;;;;;;;5069014;28;20031;-46
2022/02/17 06:13:54;;;;;;;0.38;0.20;;;;;;;;;;5071733;28;20032;-46
2022/02/17 06:16:20;;;;;;;0.93;0.22;;;;;;;;;;5072188;28;20051;-46
2022/02/17 06:18:45;;;;;;;0.55;0.30;;;;;;;;;;5072578;28;20039;-46
2022/02/17 06:21:11;;;;;;;2.55;0.20;;;;;;;;;;5072984;28;20107;-46
2022/02/17 06:23:37;;;;;;;0.52;0.20;;;;;;;;;;5071986;28;20492;-46
2022/02/17 06:26:03;;;;;;;0.85;0.47;;;;;;;;;;5072911;28;20029;-46
2022/02/17 06:28:29;;;;;;;2.53;0.30;;;;;;;;;;5071775;28;20100;-47
2022/02/17 06:30:56;;;;;;;0.40;0.20;;;;;;;;;;5072550;28;20055;-46
2022/02/17 06:33:22;;;;;;;0.40;0.20;;;;;;;;;;5067231;28;20020;-46
2022/02/17 06:35:48;;;;;;;1.95;0.40;;;;;;;;;;5072625;28;20043;-46
2022/02/17 06:38:14;;;;;;;1.25;0.20;;;;;;;;;;5071757;28;20044;-48
2022/02/17 06:40:41;;;;;;;0.73;0.40;;;;;;;;;;5071698;28;20032;-46
2022/02/17 06:43:11;;;;;;;1.02;0.50;;;;;;;;;;5071308;28;20040;-46
2022/02/17 06:45:37;;;;;;;0.45;0.40;;;;;;;;;;5071005;28;20021;-47
2022/02/17 06:48:04;;;;;;;2.25;0.40;;;;;;;;;;5072001;28;20025;-46
2022/02/17 06:50:30;;;;;;;1.50;0.40;;;;;;;;;;5071191;28;20149;-47
2022/02/17 06:52:56;;;;;;;1.85;0.20;;;;;;;;;;5071446;28;20032;-45
2022/02/17 06:55:23;;;;;;;2.08;0.35;;;;;;;;;;5070452;28;20056;-46
2022/02/17 06:57:49;;;;;;;1.00;0.50;;;;;;;;;;5071103;28;20032;-45
2022/02/17 07:00:15;;;;;;;0.93;0.30;;;;;;;;;;5071089;28;20024;-46
2022/02/17 07:02:47;;;;;;;1.77;0.30;;;;;;;;;;5070707;28;20538;-46
2022/02/17 07:05:13;;;;;;;4.10;0.90;;;;;;;;;;5071516;28;20096;-45
2022/02/17 07:07:39;;;;;;;5.03;0.80;;;;;;;;;;5053311;28;20064;-46
2022/02/17 07:10:07;;;;;;;4.13;0.50;;;;;;;;;;5070267;28;20362;-46
2022/02/17 07:12:33;;;;;;;3.25;0.50;;;;;;;;;;5070098;28;20056;-48
2022/02/17 07:15:01;;;;;;;3.95;0.70;;;;;;;;;;5052701;28;20090;-46
2022/02/17 07:17:27;;;;;;;2.83;0.50;;;;;;;;;;5069830;28;20500;-45
2022/02/17 07:19:53;;;;;;;3.40;1.13;;;;;;;;;;5070005;28;20020;-47
2022/02/17 07:22:19;;;;;;;3.88;0.90;;;;;;;;;;5068624;28;20521;-54
2022/02/17 07:24:45;;;;;;;5.53;1.23;;;;;;;;;;5070079;28;20045;-47
2022/02/17 07:27:12;;;;;;;8.55;1.63;;;;;;;;;;5069391;28;20032;-46
2022/02/17 07:29:38;;;;;;;3.03;0.98;;;;;;;;;;5069884;28;20032;-46
2022/02/17 07:32:05;;;;;;;4.18;1.23;;;;;;;;;;5070057;28;20036;-52
2022/02/17 07:34:31;;;;;;;6.90;1.13;;;;;;;;;;5069746;28;20366;-49
2022/02/17 07:36:57;;;;;;;6.57;1.07;;;;;;;;;;5032356;28;1084803;-46
2022/02/17 07:39:23;;;;;;;7.05;1.70;;;;;;;;;;5070918;28;20051;-45
2022/02/17 07:41:49;;;;;;;4.75;0.77;;;;;;;;;;5071059;28;20028;-47
2022/02/17 07:44:15;;;;;;;3.30;0.60;;;;;;;;;;5070854;28;20028;-45
2022/02/17 07:46:41;;;;;;;4.03;1.38;;;;;;;;;;5069829;28;20094;-49
2022/02/17 07:49:09;;;;;;;6.53;0.77;;;;;;;;;;5070627;28;20404;-44
2022/02/17 07:51:35;;;;;;;5.93;1.20;;;;;;;;;;5070444;28;20100;-46
2022/02/17 07:54:01;;;;;;;3.30;0.88;;;;;;;;;;5061467;28;20051;-46
2022/02/17 07:56:27;;;;;;;3.63;1.17;;;;;;;;;;5066341;28;20029;-45
2022/02/17 07:58:53;;;;;;;3.97;1.15;;;;;;;;;;5067602;28;20048;-45
2022/02/17 08:01:19;;;;;;;3.05;0.70;;;;;;;;;;5069738;28;20108;-48
2022/02/17 08:03:46;;;;;;;2.47;0.70;;;;;;;;;;5069648;28;20115;-45
2022/02/17 08:06:12;;;;;;;2.40;1.00;;;;;;;;;;5069856;28;20063;-49
2022/02/17 08:08:39;;;;;;;1.63;0.60;;;;;;;;;;5070315;28;20029;-45
2022/02/17 08:11:05;;;;;;;4.30;1.38;;;;;;;;;;5070392;28;20021;-45
2022/02/17 08:13:32;;;;;;;3.92;1.05;;;;;;;;;;5070323;28;20028;-45
2022/02/17 08:15:58;;;;;;;2.10;0.77;;;;;;;;;;5070626;28;20032;-45
2022/02/17 08:18:24;;;;;;;2.42;0.90;;;;;;;;;;5069224;28;20385;-47
2022/02/17 08:20:50;;;;;;;2.17;0.70;;;;;;;;;;5070181;28;20033;-45
2022/02/17 08:23:19;;;;;;;3.45;0.68;;;;;;;;;;5070163;28;20497;-45
2022/02/17 08:25:45;;;;;;;7.50;1.40;;;;;;;;;;5070166;28;20051;-46
2022/02/17 08:28:11;;;;;;;2.67;0.70;;;;;;;;;;5069942;28;20453;-46
2022/02/17 08:30:37;;;;;;;2.60;1.35;;;;;;;;;;5069757;28;20028;-45
2022/02/17 08:33:04;;;;;;;2.78;0.70;;;;;;;;;;5070732;28;20035;-47
2022/02/17 08:35:30;;;;;;;2.80;1.23;;;;;;;;;;5070182;28;20027;-46
2022/02/17 08:37:57;;;;;;;4.18;1.05;;;;;;;;;;5072490;28;20048;-46
2022/02/17 08:40:23;;;;;;;2.15;0.70;;;;;;;;;;5073937;28;20414;-52
2022/02/17 08:42:49;;;;;;;1.63;0.90;;;;;;;;;;5073824;28;20032;-46
2022/02/17 08:45:15;;;;;;;4.00;1.17;;;;;;;;;;5073780;28;20043;-47
2022/02/17 08:47:42;;;;;;;3.42;0.80;;;;;;;;;;5072760;28;20028;-46
2022/02/17 08:50:09;;;;;;;2.08;1.10;;;;;;;;;;5073372;28;20025;-46
2022/02/17 08:52:36;;;;;;;4.72;1.10;;;;;;;;;;5073071;28;20423;-45
2022/02/17 08:55:02;;;;;;;2.33;1.27;;;;;;;;;;5074255;28;20024;-45
2022/02/17 08:57:28;;;;;;;3.83;0.80;;;;;;;;;;5072121;28;20116;-45
2022/02/17 08:59:54;;;;;;;2.10;0.70;;;;;;;;;;5052561;28;20056;-45
2022/02/17 09:02:20;;;;;;;2.97;1.30;;;;;;;;;;5071732;28;20021;-45
2022/02/17 09:04:46;;;;;;;2.15;1.15;;;;;;;;;;5072677;28;20532;-46
2022/02/17 09:07:12;;;;;;;4.72;1.10;;;;;;;;;;5072317;28;20024;-45
2022/02/17 09:09:38;;;;;;;2.72;0.68;;;;;;;;;;5072431;28;20173;-45
2022/02/17 09:12:05;;;;;;;1.95;0.70;;;;;;;;;;5073284;28;20373;-45
2022/02/17 09:14:31;;;;;;;3.20;0.90;;;;;;;;;;5071365;28;20117;-46
2022/02/17 09:16:57;;;;;;;2.88;0.90;;;;;;;;;;5071919;28;20599;-47
2022/02/17 09:19:23;;;;;;;2.95;0.73;;;;;;;;;;5071962;28;20378;-52
2022/02/17 09:21:49;;;;;;;2.95;0.80;;;;;;;;;;5072694;28;20020;-46
2022/02/17 09:24:15;;;;;;;4.40;1.15;;;;;;;;;;5065291;28;20079;-45
2022/02/17 09:26:45;;;;;;;2.33;1.02;;;;;;;;;;5072687;28;20444;-46
2022/02/17 09:29:11;;;;;;;4.28;0.85;;;;;;;;;;5072913;28;20365;-45
2022/02/17 09:31:37;;;;;;;1.85;0.75;;;;;;;;;;5071332;28;20032;-45
2022/02/17 09:34:03;;;;;;;5.00;1.00;;;;;;;;;;5072303;28;20024;-45
2022/02/17 09:36:29;;;;;;;2.85;1.10;;;;;;;;;;5071325;28;20519;-46
2022/02/17 09:38:56;;;;;;;2.38;1.05;;;;;;;;;;5072208;28;20044;-45
2022/02/17 09:41:22;;;;;;;2.00;0.93;;;;;;;;;;5074343;28;20025;-45
2022/02/17 09:43:50;;;;;;;4.45;1.42;;;;;;;;;;5070916;28;20039;-46
2022/02/17 09:46:20;;;;;;;2.20;0.88;;;;;;;;;;5072335;28;20028;-46
2022/02/17 09:48:50;;;;;;;3.17;0.88;;;;;;;;;;5070746;28;20020;-45
2022/02/17 09:51:16;;;;;;;3.85;0.82;;;;;;;;;;5072482;28;20389;-47
2022/02/17 09:53:43;;;;;;;3.88;0.80;;;;;;;;;;5070920;28;20067;-46
2022/02/17 09:56:09;;;;;;;2.33;1.00;;;;;;;;;;5072381;28;20115;-46
2022/02/17 09:58:35;;;;;;;2.08;0.77;;;;;;;;;;5071757;28;20063;-45
2022/02/17 10:01:01;;;;;;;1.45;0.70;;;;;;;;;;5072494;28;20025;-46
2022/02/17 10:03:29;;;;;;;4.57;1.20;;;;;;;;;;5072302;28;20373;-49
2022/02/17 10:06:04;;;;;;;2.20;0.80;;;;;;;;;;5072236;28;20028;-45
2022/02/17 10:08:30;;;;;;;4.85;1.17;;;;;;;;;;5070528;28;20020;-46
2022/02/17 10:10:56;;;;;;;3.20;1.05;;;;;;;;;;5071910;28;20029;-45
2022/02/17 10:13:22;;;;;;;4.90;1.58;;;;;;;;;;5071740;28;20024;-49
2022/02/17 10:15:52;;;;;;;4.70;1.17;;;;;;;;;;5066485;28;20079;-45
2022/02/17 10:18:21;;;;;;;2.03;0.70;;;;;;;;;;5073080;28;20028;-45
2022/02/17 10:21:07;;;;;;;5.15;1.20;;;;;;;;;;5071227;28;20024;-46
2022/02/17 10:23:35;;;;;;;3.10;1.27;;;;;;;;;;5071506;28;20107;-46
2022/02/17 10:26:20;;;;;;;2.15;1.00;;;;;;;;;;5072636;28;20107;-45
2022/02/17 10:29:03;;;;;;;5.70;1.60;;;;;;;;;;5052800;28;20151;-48
2022/02/17 10:31:31;;;;;;;3.05;0.70;;;;;;;;;;5062835;28;20486;-48
2022/02/17 10:33:58;;;;;;;3.05;1.05;;;;;;;;;;5072035;28;20107;-45
2022/02/17 10:36:37;;;;;;;2.67;0.88;;;;;;;;;;5071681;28;20032;-47
2022/02/17 10:39:11;;;;;;;4.60;1.30;;;;;;;;;;5071521;28;20378;-45
2022/02/17 10:41:46;;;;;;;3.03;0.77;;;;;;;;;;5071516;28;20024;-45
2022/02/17 10:44:12;;;;;;;2.55;1.00;;;;;;;;;;5071700;28;20039;-46
2022/02/17 10:46:38;;;;;;;4.50;1.00;;;;;;;;;;5070514;28;20111;-45
2022/02/17 10:49:14;;;;;;;3.47;1.45;;;;;;;;;;5071123;28;20032;-48
2022/02/17 10:51:40;;;;;;;3.72;1.38;;;;;;;;;;5051262;28;20536;-47
2022/02/17 10:54:06;;;;;;;2.83;0.82;;;;;;;;;;5061282;28;20024;-47
2022/02/17 10:56:33;;;;;;;3.67;1.02;;;;;;;;;;5070904;28;20048;-45
2022/02/17 10:59:00;;;;;;;3.17;1.30;;;;;;;;;;5071547;28;20024;-46
2022/02/17 11:01:26;;;;;;;2.80;1.10;;;;;;;;;;5071294;28;20060;-52
2022/02/17 11:03:53;;;;;;;2.17;0.90;;;;;;;;;;5071053;28;20031;-47
2022/02/17 11:06:19;;;;;;;3.83;0.95;;;;;;;;;;5071294;28;20028;-47
2022/02/17 11:08:47;;;;;;;4.20;1.40;;;;;;;;;;5069771;28;20028;-46
2022/02/17 11:11:16;;;;;;;2.97;1.20;;;;;;;;;;5071324;28;20029;-46
2022/02/17 11:13:46;;;;;;;3.40;1.20;;;;;;;;;;5070232;28;20055;-48
2022/02/17 11:16:15;;;;;;;3.20;1.10;;;;;;;;;;5070167;28;20481;-46
2022/02/17 11:18:41;;;;;;;2.10;1.10;;;;;;;;;;5070254;28;20028;-46
2022/02/17 11:21:09;;;;;;;4.13;1.00;;;;;;;;;;5070582;28;20029;-45
2022/02/17 11:23:36;;;;;;;3.88;1.13;;;;;;;;;;5069130;28;20529;-46
2022/02/17 11:26:03;;;;;;;3.20;1.42;;;;;;;;;;5053391;28;20033;-45
2022/02/17 11:28:32;;;;;;;3.33;0.90;;;;;;;;;;5070571;28;20032;-51
2022/02/17 11:30:58;;;;;;;3.22;1.25;;;;;;;;;;5071678;28;20025;-47
2022/02/17 11:33:31;;;;;;;5.53;1.20;;;;;;;;;;5057172;28;20908;-49
2022/02/17 11:36:19;;;;;;;3.50;1.33;;;;;;;;;;5070841;28;20031;-46
2022/02/17 11:38:51;;;;;;;2.20;1.05;;;;;;;;;;5083992;28;20392;-45
2022/02/17 11:41:18;;;;;;;3.20;1.30;;;;;;;;;;5086366;28;20017;-46
2022/02/17 11:43:45;;;;;;;3.65;1.70;;;;;;;;;;5091686;28;20430;-45
2022/02/17 11:46:14;;;;;;;4.53;1.35;;;;;;;;;;5092188;28;20031;-47
2022/02/17 11:48:43;;;;;;;3.25;1.25;;;;;;;;;;5090773;28;20024;-46
2022/02/17 11:51:25;;;;;;;5.25;1.23;;;;;;;;;;5091412;28;20384;-45
2022/02/17 11:54:14;;;;;;;3.88;1.27;;;;;;;;;;5090351;28;20035;-45
2022/02/17 11:56:40;;;;;;;4.43;1.35;;;;;;;;;;5089942;28;20050;-46
2022/02/17 11:59:26;;;;;;;4.32;1.42;;;;;;;;;;5088760;28;20024;-49
2022/02/17 12:01:54;;;;;;;5.72;1.58;;;;;;;;;;5090798;28;20790;-46
2022/02/17 12:04:25;;;;;;;5.70;1.45;;;;;;;;;;5099414;28;20036;-45
2022/02/17 12:06:58;;;;;;;3.30;1.42;;;;;;;;;;5090481;28;20174;-46
2022/02/17 12:09:33;;;;;;;4.13;1.40;;;;;;;;;;5090295;28;20103;-45
2022/02/17 12:12:18;;;;;;;4.35;1.15;;;;;;;;;;5091804;28;20510;-45
2022/02/17 12:14:48;;;;;;;3.47;0.98;;;;;;;;;;5079039;28;20437;-44
2022/02/17 12:17:14;;;;;;;3.80;1.48;;;;;;;;;;5094181;28;20497;-45
2022/02/17 12:19:40;;;;;;;4.47;1.48;;;;;;;;;;5083763;28;20032;-43
2022/02/17 12:22:07;;;;;;;3.30;1.40;;;;;;;;;;5074843;28;20024;-44
2022/02/17 12:24:33;;;;;;;5.45;1.40;;;;;;;;;;5102319;28;20569;-48
2022/02/17 12:26:59;;;;;;;6.22;1.63;;;;;;;;;;5099058;28;20096;-44
2022/02/17 12:29:30;;;;;;;6.00;1.63;;;;;;;;;;5094497;28;20032;-44
2022/02/17 12:31:57;;;;;;;5.78;1.30;;;;;;;;;;5094300;28;20031;-45
2022/02/17 12:34:24;;;;;;;7.15;1.42;;;;;;;;;;5094448;28;20056;-45
2022/02/17 12:36:50;;;;;;;5.68;1.63;;;;;;;;;;5092462;28;20082;-45
2022/02/17 12:39:16;;;;;;;5.63;1.58;;;;;;;;;;5073954;28;20028;-46
2022/02/17 12:41:55;;;;;;;7.53;1.65;;;;;;;;;;5069230;28;20033;-51
2022/02/17 12:44:25;;;;;;;6.63;1.27;;;;;;;;;;5064678;28;20021;-45
2022/02/17 12:46:51;;;;;;;3.15;1.23;;;;;;;;;;5071797;28;20032;-46
2022/02/17 12:49:17;;;;;;;5.88;1.30;;;;;;;;;;5074097;28;20024;-45
2022/02/17 12:51:43;;;;;;;8.13;1.63;;;;;;;;;;5073044;28;20032;-45
2022/02/17 12:54:11;;;;;;;6.15;2.10;;;;;;;;;;5063669;28;20070;-45
2022/02/17 12:56:38;;;;;;;8.25;2.13;;;;;;;;;;5058639;28;20025;-46
2022/02/17 12:59:10;;;;;;;4.47;1.38;;;;;;;;;;5074624;28;20037;-45
2022/02/17 13:01:41;;;;;;;5.43;2.42;;;;;;;;;;5073090;28;20111;-45
2022/02/17 13:04:07;;;;;;;6.10;1.40;;;;;;;;;;5073544;28;20365;-46
2022/02/17 13:06:34;;;;;;;5.03;1.42;;;;;;;;;;5072800;28;20036;-49
2022/02/17 13:09:11;;;;;;;7.68;1.42;;;;;;;;;;5072454;28;20020;-46
2022/02/17 13:11:38;;;;;;;7.00;1.65;;;;;;;;;;5072455;28;20032;-50
2022/02/17 13:14:05;;;;;;;5.40;1.38;;;;;;;;;;5072271;28;20074;-45
2022/02/17 13:16:31;;;;;;;4.22;1.40;;;;;;;;;;5073778;28;20024;-50
2022/02/17 13:18:57;;;;;;;5.45;1.75;;;;;;;;;;5072288;28;20036;-46
2022/02/17 13:21:24;;;;;;;7.60;1.80;;;;;;;;;;5072971;28;20025;-45
2022/02/17 13:23:50;;;;;;;6.53;1.50;;;;;;;;;;5071480;28;20021;-46
2022/02/17 13:26:33;;;;;;;5.25;1.20;;;;;;;;;;5073044;28;20042;-45
2022/02/17 13:29:00;;;;;;;4.63;1.77;;;;;;;;;;5071546;28;20086;-47
2022/02/17 13:31:33;;;;;;;7.00;2.20;;;;;;;;;;5073371;28;20031;-45
2022/02/17 13:34:06;;;;;;;3.70;1.38;;;;;;;;;;5073203;28;20784;-45
2022/02/17 13:36:34;;;;;;;4.15;1.67;;;;;;;;;;5073041;28;20035;-52
2022/02/17 13:39:04;;;;;;;3.70;1.10;;;;;;;;;;5071870;28;20040;-46
2022/02/17 13:41:31;;;;;;;4.80;1.90;;;;;;;;;;5072785;28;20016;-46
2022/02/17 13:43:58;;;;;;;4.20;1.35;;;;;;;;;;5072434;28;20028;-45
2022/02/17 13:46:24;;;;;;;6.43;1.75;;;;;;;;;;5071739;28;20036;-45
2022/02/17 13:48:50;;;;;;;8.30;2.55;;;;;;;;;;5072089;28;20027;-46
2022/02/17 13:51:18;;;;;;;5.57;1.58;;;;;;;;;;5071224;28;20024;-47
2022/02/17 13:53:45;;;;;;;6.55;1.63;;;;;;;;;;5070713;28;20028;-45
2022/02/17 13:56:19;;;;;;;6.55;1.45;;;;;;;;;;5072567;28;20039;-45
2022/02/17 13:58:49;;;;;;;7.85;1.92;;;;;;;;;;5060882;28;20040;-45
2022/02/17 14:01:15;;;;;;;4.25;1.40;;;;;;;;;;5071092;28;20036;-45
2022/02/17 14:03:47;;;;;;;5.13;1.27;;;;;;;;;;5071731;28;20036;-46
2022/02/17 14:06:18;;;;;;;4.30;1.67;;;;;;;;;;5071159;28;20047;-45
2022/02/17 14:08:44;;;;;;;6.28;1.80;;;;;;;;;;5070225;28;20037;-45
2022/02/17 14:11:11;;;;;;;4.97;1.58;;;;;;;;;;5071541;28;20042;-44
2022/02/17 14:13:37;;;;;;;6.32;1.60;;;;;;;;;;5071812;28;20032;-52
2022/02/17 14:16:03;;;;;;;4.38;1.50;;;;;;;;;;5061207;28;20032;-44
2022/02/17 14:18:29;;;;;;;3.90;1.77;;;;;;;;;;5071396;28;20424;-45
2022/02/17 14:20:55;;;;;;;6.22;1.58;;;;;;;;;;5071255;28;20028;-45
2022/02/17 14:23:21;;;;;;;5.43;1.73;;;;;;;;;;5072063;28;20032;-44
2022/02/17 14:25:47;;;;;;;4.93;1.85;;;;;;;;;;5071379;28;20096;-45
2022/02/17 14:28:13;;;;;;;3.45;1.27;;;;;;;;;;5072230;28;20108;-46
2022/02/17 14:30:44;;;;;;;7.95;2.00;;;;;;;;;;5070938;28;20033;-46
2022/02/17 14:33:11;;;;;;;4.10;1.57;;;;;;;;;;5072153;28;20099;-45
2022/02/17 14:35:37;;;;;;;4.68;1.35;;;;;;;;;;5071248;28;20055;-50
2022/02/17 14:38:03;;;;;;;4.13;1.30;;;;;;;;;;5071218;28;20543;-44
2022/02/17 14:40:29;;;;;;;6.95;2.25;;;;;;;;;;5071758;28;20024;-45
2022/02/17 14:42:55;;;;;;;6.10;1.92;;;;;;;;;;5070060;28;20047;-47
2022/02/17 14:45:22;;;;;;;3.70;1.35;;;;;;;;;;5071797;28;20154;-45